Time;durP1;ratioP1;P1;durP2;ratioP2;P2;SDS_P1;SDS_P2;PMS_P1;PMS_P2;Temp;Humidity;BMP_temperature;BMP_pressure;BME280_temperature;BME280_humidity;BME280_pressure;Samples;Min_cycle;Max_cycle;Signal;HPM_P1;HPM_P2
2022/09/27 00:00:03;;;;;;;95.40;13.23;;;;;;;20.07;65.72;99698.44;4940169;29;20099;-88
2022/09/27 00:02:29;;;;;;;112.32;17.08;;;;;;;20.36;65.73;99730.00;4937455;29;20106;-88
2022/09/27 00:04:55;;;;;;;34.70;8.95;;;;;;;20.12;65.72;99685.00;4939819;29;20051;-86
2022/09/27 00:07:20;;;;;;;177.95;60.13;;;;;;;20.12;65.67;99682.25;4937321;29;20043;-85
2022/09/27 00:09:46;;;;;;;67.50;21.35;;;;;;;20.38;65.62;99725.16;4936893;29;20031;-86
2022/09/27 00:12:11;;;;;;;30.02;10.48;;;;;;;20.36;65.97;99733.59;4936544;29;20023;-87
2022/09/27 00:14:37;;;;;;;22.17;9.88;;;;;;;20.35;66.11;99726.44;4943087;29;20055;-86
2022/09/27 00:17:02;;;;;;;26.20;10.30;;;;;;;20.16;66.65;99699.06;4949744;29;20042;-88
2022/09/27 00:19:28;;;;;;;18.50;8.38;;;;;;;20.20;66.68;99723.03;4936583;29;20032;-86
2022/09/27 00:21:53;;;;;;;19.23;6.82;;;;;;;19.91;67.05;99685.19;4936187;29;20060;-86
2022/09/27 00:24:21;;;;;;;15.27;7.28;;;;;;;20.06;67.15;99710.41;4937441;29;20059;-86
2022/09/27 00:26:47;;;;;;;10.73;7.82;;;;;;;20.06;67.41;99713.13;4937217;29;20020;-85
2022/09/27 00:29:15;;;;;;;21.33;7.45;;;;;;;19.83;67.43;99693.56;4937866;29;20040;-86
2022/09/27 00:31:40;;;;;;;14.93;8.65;;;;;;;20.00;67.59;99723.00;4938660;29;20031;-87
2022/09/27 00:34:07;;;;;;;59.33;9.38;;;;;;;19.98;67.67;99730.56;4936917;29;20031;-87
2022/09/27 00:36:33;;;;;;;15.68;7.72;;;;;;;19.94;67.93;99734.75;4937880;29;20038;-86
2022/09/27 00:39:00;;;;;;;16.42;7.95;;;;;;;19.89;67.81;99733.69;4947104;29;20016;-85
2022/09/27 00:41:32;;;;;;;14.73;6.47;;;;;;;19.86;68.01;99725.91;4967821;28;20050;-86
2022/09/27 00:44:24;;;;;;;11.15;7.10;;;;;;;19.58;68.16;99693.31;4977963;28;20027;-83
2022/09/27 00:47:20;;;;;;;9.70;7.50;;;;;;;19.76;68.27;99720.00;4964980;28;20486;-87
2022/09/27 00:50:04;;;;;;;53.10;9.57;;;;;;;19.67;68.50;99713.03;4938518;28;20036;-86
2022/09/27 00:52:45;;;;;;;26.20;8.20;;;;;;;19.43;68.57;99674.38;4956445;28;20027;-87
2022/09/27 00:55:19;;;;;;;10.57;7.20;;;;;;;19.65;69.09;99717.88;4922840;28;20043;-87
2022/09/27 00:57:47;;;;;;;174.63;14.93;;;;;;;19.63;69.01;99714.53;4957239;28;20034;-86
2022/09/27 01:00:14;;;;;;;67.28;10.82;;;;;;;19.63;69.11;99722.72;4957631;28;20027;-86
2022/09/27 01:02:45;;;;;;;60.78;10.15;;;;;;;19.60;69.21;99712.22;4940817;28;20035;-85
2022/09/27 01:05:13;;;;;;;33.67;7.73;;;;;;;19.52;69.18;99697.69;4964433;28;20038;-86
2022/09/27 01:07:39;;;;;;;16.58;8.98;;;;;;;19.46;69.28;99682.16;4958618;28;20027;-85
2022/09/27 01:10:06;;;;;;;11.25;6.88;;;;;;;19.44;69.19;99678.81;4979019;28;20014;-85
2022/09/27 01:13:03;;;;;;;13.82;7.03;;;;;;;19.59;68.98;99708.63;4974659;28;20451;-87
2022/09/27 01:15:39;;;;;;;15.98;7.93;;;;;;;19.53;69.33;99704.84;4958081;28;20031;-87
2022/09/27 01:18:20;;;;;;;16.95;8.00;;;;;;;19.54;69.37;99700.22;4941183;28;20031;-86
2022/09/27 01:21:07;;;;;;;21.60;7.40;;;;;;;19.49;69.37;99702.72;4955584;28;20078;-87
2022/09/27 01:23:51;;;;;;;20.88;7.43;;;;;;;19.18;69.37;99634.19;4938500;28;20062;-86
2022/09/27 01:26:37;;;;;;;19.05;7.40;;;;;;;19.50;69.39;99694.34;4954786;28;20163;-85
2022/09/27 01:29:10;;;;;;;13.93;7.15;;;;;;;19.57;69.39;99685.34;4954962;28;20027;-85
2022/09/27 01:31:50;;;;;;;10.55;6.53;;;;;;;19.42;69.28;99652.75;4954575;28;20469;-85
2022/09/27 01:34:30;;;;;;;11.15;6.63;;;;;;;19.64;69.29;99688.91;4955264;28;20069;-85
2022/09/27 01:37:11;;;;;;;16.55;6.80;;;;;;;19.63;69.53;99693.50;4955007;28;20027;-85
2022/09/27 01:39:51;;;;;;;28.73;6.88;;;;;;;19.48;69.25;99663.69;4954579;28;20027;-85
2022/09/27 01:42:30;;;;;;;14.50;7.80;;;;;;;19.67;69.33;99688.50;4955193;28;20063;-86
2022/09/27 01:44:59;;;;;;;23.52;7.95;;;;;;;19.68;69.49;99682.00;4946691;28;20067;-83
2022/09/27 01:47:36;;;;;;;15.82;7.75;;;;;;;19.61;69.62;99672.94;4962488;28;20039;-85
2022/09/27 01:50:14;;;;;;;15.10;7.22;;;;;;;19.40;69.82;99652.97;4960810;28;20043;-86
2022/09/27 01:53:08;;;;;;;31.95;7.18;;;;;;;19.43;69.75;99658.03;4954905;28;20487;-85
2022/09/27 01:55:37;;;;;;;19.15;8.02;;;;;;;19.56;69.79;99681.78;4957017;28;20023;-87
2022/09/27 01:58:15;;;;;;;21.40;7.35;;;;;;;19.51;69.64;99657.81;4939482;28;20027;-85
2022/09/27 02:00:43;;;;;;;14.25;7.88;;;;;;;19.62;69.79;99669.19;4957096;28;20070;-87
2022/09/27 02:03:14;;;;;;;13.68;7.97;;;;;;;19.70;69.57;99672.56;4967305;28;20090;-85
2022/09/27 02:05:49;;;;;;;13.10;7.30;;;;;;;19.78;69.34;99668.81;4967645;28;20085;-83
2022/09/27 02:08:37;;;;;;;37.42;8.02;;;;;;;19.60;68.85;99623.00;4965460;28;20023;-84
2022/09/27 02:11:08;;;;;;;227.38;19.58;;;;;;;19.72;68.48;99620.53;4957682;28;20094;-86
2022/09/27 02:13:41;;;;;;;93.25;11.70;;;;;;;19.89;68.01;99635.44;4955797;28;20058;-84
2022/09/27 02:16:09;;;;;;;40.53;8.10;;;;;;;19.98;67.96;99643.22;4959160;28;20030;-86
2022/09/27 02:18:55;;;;;;;33.15;8.48;;;;;;;19.93;67.42;99637.56;4964721;28;20078;-85
2022/09/27 02:21:30;;;;;;;45.33;9.35;;;;;;;20.03;67.37;99650.75;4964237;28;20027;-85
2022/09/27 02:24:00;;;;;;;21.33;6.63;;;;;;;20.00;67.31;99640.25;4965798;28;20047;-86
2022/09/27 02:26:44;;;;;;;8.70;6.55;;;;;;;20.19;66.85;99677.66;4967880;28;20047;-85
2022/09/27 02:29:26;;;;;;;17.67;7.35;;;;;;;20.25;66.57;99674.09;4968713;28;20023;-85
2022/09/27 02:31:51;;;;;;;135.02;13.35;;;;;;;19.79;66.65;99594.06;4950663;28;20039;-86
2022/09/27 02:34:21;;;;;;;205.43;20.90;;;;;;;20.42;66.42;99678.13;4969578;28;20411;-85
2022/09/27 02:36:47;;;;;;;67.88;9.85;;;;;;;20.24;65.88;99631.47;4968836;28;20066;-87
2022/09/27 02:39:13;;;;;;;54.75;9.60;;;;;;;20.36;65.37;99642.63;4968251;28;20027;-85
2022/09/27 02:41:38;;;;;;;22.60;7.15;;;;;;;20.58;64.97;99664.00;4967783;28;20059;-84
2022/09/27 02:44:10;;;;;;;22.95;6.72;;;;;;;20.64;64.71;99679.53;4968438;28;20027;-84
2022/09/27 02:46:57;;;;;;;17.77;6.60;;;;;;;20.71;64.37;99675.94;4968110;28;20020;-86
2022/09/27 02:49:39;;;;;;;12.77;6.40;;;;;;;20.67;63.81;99647.41;4968411;28;20091;-85
2022/09/27 02:52:52;;;;;;;13.50;6.45;;;;;;;20.79;63.95;99662.09;4961531;28;20106;-87
2022/09/27 02:55:20;;;;;;;37.22;7.97;;;;;;;20.80;63.79;99680.13;4897831;29;20172;-85
2022/09/27 02:57:56;;;;;;;16.83;6.38;;;;;;;20.83;63.65;99668.78;4913186;29;20095;-85
2022/09/27 03:00:30;;;;;;;14.45;5.82;;;;;;;20.62;63.41;99629.75;4916142;29;20036;-87
2022/09/27 03:03:19;;;;;;;14.73;6.20;;;;;;;20.85;63.41;99655.75;4916836;29;20047;-85
2022/09/27 03:06:00;;;;;;;11.05;5.95;;;;;;;20.60;63.22;99620.94;4917098;29;20039;-86
2022/09/27 03:08:25;;;;;;;16.08;5.75;;;;;;;20.64;63.10;99633.09;4900400;29;20119;-85
2022/09/27 03:10:51;;;;;;;12.20;6.22;;;;;;;20.64;62.90;99630.34;4916517;29;20462;-84
2022/09/27 03:13:17;;;;;;;40.20;7.22;;;;;;;20.70;63.02;99641.50;4921583;29;20545;-86
2022/09/27 03:15:42;;;;;;;26.65;7.22;;;;;;;20.96;63.05;99679.69;4929877;29;20064;-84
2022/09/27 03:18:08;;;;;;;42.13;8.85;;;;;;;20.79;62.83;99640.22;4921032;29;20051;-86
2022/09/27 03:20:33;;;;;;;412.88;31.88;;;;;;;21.05;62.82;99672.94;4920146;29;20036;-85
2022/09/27 03:22:59;;;;;;;326.10;26.13;;;;;;;21.00;63.01;99670.84;4921521;29;20032;-85
2022/09/27 03:25:25;;;;;;;188.38;20.38;;;;;;;21.02;63.09;99665.16;4918831;29;20036;-82
2022/09/27 03:27:51;;;;;;;122.25;14.45;;;;;;;20.88;63.12;99641.66;4929260;29;20031;-83
2022/09/27 03:30:16;;;;;;;157.43;18.00;;;;;;;20.83;63.33;99627.78;4930448;29;20032;-84
2022/09/27 03:32:43;;;;;;;116.05;13.80;;;;;;;20.96;63.73;99646.88;4970192;28;20027;-84
2022/09/27 03:35:09;;;;;;;80.80;10.93;;;;;;;20.82;63.86;99610.56;4949799;28;20031;-83
2022/09/27 03:37:35;;;;;;;55.78;9.10;;;;;;;20.93;63.93;99630.91;4949563;28;20031;-84
2022/09/27 03:40:01;;;;;;;51.08;9.73;;;;;;;20.66;64.06;99577.41;4964455;28;20529;-83
2022/09/27 03:42:26;;;;;;;25.85;7.95;;;;;;;20.76;64.50;99600.50;4960321;28;20136;-85
2022/09/27 03:44:52;;;;;;;49.75;9.38;;;;;;;20.91;64.53;99608.44;4960707;28;20038;-84
2022/09/27 03:47:18;;;;;;;41.92;10.20;;;;;;;20.84;64.79;99611.19;4960370;28;20027;-85
2022/09/27 03:49:44;;;;;;;71.85;10.95;;;;;;;20.69;64.53;99596.94;4942636;28;20070;-83
2022/09/27 03:52:09;;;;;;;71.05;10.85;;;;;;;20.85;64.65;99606.56;4943943;28;20031;-85
2022/09/27 03:54:35;;;;;;;72.20;12.57;;;;;;;20.76;64.80;99599.66;4961426;28;20031;-85
2022/09/27 03:57:00;;;;;;;41.78;11.93;;;;;;;20.76;65.08;99596.94;4961275;28;20098;-86
2022/09/27 03:59:26;;;;;;;233.18;21.88;;;;;;;20.61;65.46;99589.81;4960807;28;20027;-86
2022/09/27 04:01:51;;;;;;;130.57;12.95;;;;;;;20.54;65.61;99578.06;4943208;29;20031;-85
2022/09/27 04:04:17;;;;;;;84.90;11.77;;;;;;;20.67;65.70;99598.22;4961328;28;20027;-84
2022/09/27 04:06:43;;;;;;;131.90;14.98;;;;;;;20.75;66.21;99611.63;4958733;28;20031;-81
2022/09/27 04:09:08;;;;;;;422.73;34.33;;;;;;;20.71;66.23;99621.31;4956341;28;20046;-81
2022/09/27 04:11:34;;;;;;;237.70;21.13;;;;;;;20.70;66.08;99603.25;4955288;28;20031;-80
2022/09/27 04:13:59;;;;;;;127.18;18.48;;;;;;;20.66;66.27;99602.00;4957675;28;20082;-85
2022/09/27 04:16:26;;;;;;;161.60;20.00;;;;;;;20.48;66.38;99567.16;4959036;28;20035;-79
2022/09/27 04:18:52;;;;;;;152.98;17.10;;;;;;;20.50;66.42;99576.81;4957924;28;20031;-88
2022/09/27 04:21:19;;;;;;;171.35;18.42;;;;;;;20.66;66.47;99604.72;4946368;28;20126;-88
2022/09/27 04:23:45;;;;;;;253.68;30.17;;;;;;;20.45;66.69;99578.50;4942000;28;20102;-86
2022/09/27 04:26:12;;;;;;;361.13;135.77;;;;;;;20.60;66.84;99596.34;4957730;28;20035;-79
2022/09/27 04:28:38;;;;;;;268.63;43.53;;;;;;;20.47;66.80;99573.66;4958321;28;20050;-89
2022/09/27 04:31:03;;;;;;;225.82;25.50;;;;;;;20.62;66.68;99596.97;4938816;28;20494;-83
2022/09/27 04:33:29;;;;;;;284.15;28.10;;;;;;;20.69;66.50;99607.03;4950704;28;20034;-86
2022/09/27 04:38:38;;;;;;;373.63;35.13;;;;;;;20.56;66.70;99592.34;4955378;28;20050;-86
2022/09/27 04:41:04;;;;;;;246.27;27.35;;;;;;;20.71;66.96;99633.06;4955703;28;20522;-85
2022/09/27 04:43:29;;;;;;;499.48;45.30;;;;;;;20.75;66.80;99619.84;4958724;28;20471;-79
2022/09/27 04:45:55;;;;;;;375.05;32.53;;;;;;;20.78;66.96;99622.13;4945416;29;20031;-81
2022/09/27 04:48:20;;;;;;;362.00;34.38;;;;;;;20.79;67.05;99632.03;4957204;28;20027;-82
2022/09/27 04:50:46;;;;;;;177.95;22.55;;;;;;;20.60;67.17;99603.69;4973236;28;20034;-87
2022/09/27 04:53:13;;;;;;;269.83;28.52;;;;;;;20.74;66.92;99615.41;4978516;28;20019;-86
2022/09/27 04:55:39;;;;;;;618.70;55.72;;;;;;;20.72;67.14;99606.59;4959295;28;20034;-87
2022/09/27 04:58:05;;;;;;;560.35;54.58;;;;;;;20.50;67.25;99565.03;4965464;28;20426;-88
2022/09/27 05:00:31;;;;;;;629.63;50.25;;;;;;;20.92;67.29;99619.13;4961751;28;20062;-89
2022/09/27 05:02:56;;;;;;;565.05;65.45;;;;;;;20.98;67.84;99618.25;4962635;28;20095;-82
2022/09/27 05:05:22;;;;;;;557.67;55.80;;;;;;;21.00;67.40;99618.91;4953425;28;20447;-84
2022/09/27 05:07:47;;;;;;;424.48;40.05;;;;;;;20.72;67.16;99554.69;4956116;28;20541;-81
2022/09/27 05:10:13;;;;;;;531.90;50.00;;;;;;;21.09;66.89;99608.59;4935639;29;20122;-81
2022/09/27 05:12:39;;;;;;;576.42;63.85;;;;;;;21.23;66.65;99617.56;4953252;28;20071;-81
2022/09/27 05:15:05;;;;;;;586.58;65.40;;;;;;;21.32;66.71;99627.19;4953020;28;20491;-81
2022/09/27 05:17:31;;;;;;;458.65;40.75;;;;;;;21.32;66.35;99608.88;4953145;28;20042;-81
2022/09/27 05:19:56;;;;;;;433.77;44.58;;;;;;;21.40;65.60;99605.91;4952118;28;20035;-80
2022/09/27 05:22:21;;;;;;;172.48;25.77;;;;;;;21.53;65.74;99611.28;4952920;28;20027;-82
2022/09/27 05:24:47;;;;;;;308.75;33.72;;;;;;;21.20;64.69;99545.00;4952491;28;20403;-81
2022/09/27 05:27:17;;;;;;;252.80;27.70;;;;;;;21.65;64.45;99612.25;4952631;28;20734;-80
2022/09/27 05:29:43;;;;;;;175.10;23.83;;;;;;;21.64;64.39;99613.34;4952071;28;20597;-81
2022/09/27 05:32:09;;;;;;;260.77;27.40;;;;;;;21.76;63.67;99618.94;4952530;28;20027;-82
2022/09/27 05:34:34;;;;;;;65.93;16.33;;;;;;;21.81;62.76;99612.78;4952275;28;20494;-80
2022/09/27 05:37:00;;;;;;;42.47;13.85;;;;;;;21.76;61.96;99627.13;4953222;28;20035;-80
2022/09/27 05:39:25;;;;;;;45.08;12.55;;;;;;;21.69;61.65;99621.72;4952470;28;20466;-84
2022/09/27 05:41:53;;;;;;;29.63;11.48;;;;;;;21.80;61.24;99611.13;4948686;28;20055;-89
2022/09/27 05:44:19;;;;;;;26.40;10.70;;;;;;;21.71;61.08;99586.75;4936847;28;20093;-89
2022/09/27 05:46:45;;;;;;;42.55;11.60;;;;;;;21.80;60.40;99591.97;4938390;29;20416;-90
2022/09/27 05:49:10;;;;;;;49.80;11.52;;;;;;;21.92;59.86;99573.78;4954660;28;20023;-88
2022/09/27 05:51:36;;;;;;;58.45;12.55;;;;;;;22.02;60.03;99571.34;4959726;28;20027;-84
2022/09/27 05:54:02;;;;;;;36.88;10.13;;;;;;;22.29;59.44;99578.28;4971291;28;20039;-87
2022/09/27 05:56:27;;;;;;;58.38;13.40;;;;;;;22.31;58.80;99580.78;4954146;28;20066;-86
2022/09/27 05:58:53;;;;;;;37.47;11.65;;;;;;;22.32;58.80;99577.84;4968101;28;20122;-90
2022/09/27 06:01:19;;;;;;;27.13;9.02;;;;;;;22.33;58.27;99595.94;4955956;28;20039;-93
2022/09/27 06:03:46;;;;;;;42.08;14.82;;;;;;;22.10;58.35;99587.53;4953596;28;20067;-90
2022/09/27 06:06:12;;;;;;;201.50;23.35;;;;;;;22.11;58.42;99586.44;4943969;28;20054;-82
2022/09/27 06:08:38;;;;;;;65.50;19.83;;;;;;;22.04;58.35;99569.25;4967631;28;20063;-88
2022/09/27 06:11:07;;;;;;;34.53;18.00;;;;;;;22.29;58.41;99594.72;4964883;28;20035;-90
2022/09/27 06:13:33;;;;;;;37.35;11.48;;;;;;;22.20;58.17;99566.75;4973411;28;20179;-84
2022/09/27 06:15:59;;;;;;;20.65;9.48;;;;;;;22.28;57.68;99551.94;4977030;28;20062;-84
2022/09/27 06:18:25;;;;;;;31.52;7.03;;;;;;;22.56;57.30;99590.66;4976578;28;20023;-87
2022/09/27 06:20:50;;;;;;;87.13;10.98;;;;;;;22.65;56.85;99593.94;4968000;28;20039;-86
2022/09/27 06:23:19;;;;;;;11.13;6.63;;;;;;;22.68;56.25;99591.59;4964329;28;20086;-82
2022/09/27 06:25:48;;;;;;;18.02;6.72;;;;;;;22.62;56.14;99592.47;4966803;28;20033;-89
2022/09/27 06:28:14;;;;;;;30.27;7.10;;;;;;;22.45;56.39;99569.44;4958451;28;20486;-84
2022/09/27 06:30:45;;;;;;;25.25;6.82;;;;;;;22.47;56.34;99592.00;4956135;28;20027;-87
2022/09/27 06:33:14;;;;;;;16.05;6.25;;;;;;;22.40;56.59;99607.66;4953367;28;20062;-87
2022/09/27 06:35:41;;;;;;;12.48;7.10;;;;;;;22.25;57.06;99593.47;4954648;28;20126;-87
2022/09/27 06:38:09;;;;;;;16.25;6.68;;;;;;;22.24;57.06;99578.09;4956802;28;20593;-89
2022/09/27 06:40:35;;;;;;;22.02;8.38;;;;;;;22.44;56.96;99589.72;4953866;28;20070;-87
2022/09/27 06:43:06;;;;;;;37.42;7.57;;;;;;;22.36;56.46;99557.13;4951689;28;20023;-83
2022/09/27 06:45:34;;;;;;;1142.32;126.07;;;;;;;22.64;56.71;99587.59;4950801;28;20031;-91
2022/09/27 06:48:01;;;;;;;135.43;16.90;;;;;;;22.74;56.75;99579.72;4952064;28;20058;-85
2022/09/27 06:50:31;;;;;;;58.97;12.15;;;;;;;22.66;56.42;99536.13;4952412;28;20042;-92
2022/09/27 06:52:57;;;;;;;44.50;7.22;;;;;;;23.05;55.42;99572.38;4935066;28;20035;-89
2022/09/27 06:55:23;;;;;;;18.50;7.07;;;;;;;23.00;55.07;99548.38;4951977;28;20450;-84
2022/09/27 07:00:37;;;;;;;21.30;5.40;;;;;;;23.02;53.89;99545.41;4951159;28;20042;-83
2022/09/27 07:03:03;;;;;;;8.70;5.28;;;;;;;23.08;54.13;99563.69;4951287;28;20035;-85
2022/09/27 07:05:29;;;;;;;13.15;6.35;;;;;;;23.19;53.96;99554.66;4950818;28;20131;-83
2022/09/27 07:07:56;;;;;;;23.27;7.15;;;;;;;23.47;54.32;99573.28;4950071;28;20058;-87
2022/09/27 07:10:27;;;;;;;15.35;6.13;;;;;;;23.56;53.67;99578.22;4952890;28;20027;-92
2022/09/27 07:12:53;;;;;;;14.60;6.65;;;;;;;23.66;53.71;99575.75;4935291;28;20027;-90
2022/09/27 07:15:20;;;;;;;67.65;9.57;;;;;;;23.66;53.33;99564.75;4935139;29;20073;-89
2022/09/27 07:17:47;;;;;;;22.08;6.38;;;;;;;23.78;53.24;99568.38;4951828;28;20645;-92
2022/09/27 07:20:13;;;;;;;9.13;6.00;;;;;;;23.66;52.79;99537.31;4952520;28;20059;-87
2022/09/27 07:22:44;;;;;;;24.95;6.53;;;;;;;23.74;52.72;99552.56;4951025;28;20031;-85
2022/09/27 07:25:09;;;;;;;16.52;5.03;;;;;;;23.64;52.13;99541.34;4934209;28;20031;-87
2022/09/27 07:27:35;;;;;;;14.02;5.57;;;;;;;23.68;52.20;99554.38;4952914;28;20110;-87
2022/09/27 07:30:01;;;;;;;40.65;26.15;;;;;;;23.78;52.51;99573.84;4962719;28;20034;-85
2022/09/27 07:32:26;;;;;;;14.82;6.47;;;;;;;23.58;52.26;99534.88;4957431;28;20062;-87
2022/09/27 07:34:51;;;;;;;36.13;8.80;;;;;;;23.57;52.26;99519.50;4955465;28;20089;-84
2022/09/27 07:37:17;;;;;;;8.77;5.40;;;;;;;23.78;52.06;99549.13;4986269;28;20019;-86
2022/09/27 07:39:43;;;;;;;12.55;5.63;;;;;;;23.92;52.09;99562.63;4975801;28;20047;-86
2022/09/27 07:42:09;;;;;;;14.40;5.13;;;;;;;23.87;51.85;99554.28;4959306;28;20066;-85
2022/09/27 07:44:35;;;;;;;6.53;4.40;;;;;;;23.94;51.67;99558.59;4970258;28;20047;-87
2022/09/27 07:47:00;;;;;;;4.85;3.90;;;;;;;23.81;51.45;99540.44;4970989;28;20038;-85
2022/09/27 07:49:26;;;;;;;6.85;4.70;;;;;;;24.05;51.59;99578.91;4940978;29;20035;-84
2022/09/27 07:51:51;;;;;;;13.82;4.30;;;;;;;24.08;51.20;99572.94;4955323;29;20067;-87
2022/09/27 07:54:16;;;;;;;20.17;5.10;;;;;;;24.06;51.10;99553.09;4955377;29;20034;-85
2022/09/27 07:56:44;;;;;;;7.30;4.78;;;;;;;23.95;51.40;99529.19;4955274;29;20027;-87
2022/09/27 07:59:10;;;;;;;11.35;3.85;;;;;;;24.29;51.02;99561.38;4957868;29;20031;-89
2022/09/27 08:01:35;;;;;;;6.97;4.05;;;;;;;24.39;50.94;99564.38;4957259;29;20027;-89
2022/09/27 08:04:01;;;;;;;11.80;4.25;;;;;;;24.21;50.83;99524.13;4956274;29;20032;-86
2022/09/27 08:06:27;;;;;;;11.10;3.92;;;;;;;24.43;51.25;99543.56;4955642;29;20027;-87
2022/09/27 08:08:53;;;;;;;27.00;12.27;;;;;;;24.56;51.07;99558.94;4953904;29;20049;-89
2022/09/27 08:11:20;;;;;;;14.10;5.13;;;;;;;24.59;51.05;99542.81;4955958;29;20124;-88
2022/09/27 08:13:48;;;;;;;17.00;6.13;;;;;;;24.54;50.83;99517.13;4957984;29;20391;-87
2022/09/27 08:16:14;;;;;;;8.98;5.10;;;;;;;24.58;50.61;99507.31;4940383;29;20027;-85
2022/09/27 08:18:40;;;;;;;16.13;5.22;;;;;;;24.83;50.70;99519.69;4918018;29;20080;-83
2022/09/27 08:21:05;;;;;;;12.40;4.65;;;;;;;24.77;50.45;99473.06;4915669;29;20464;-89
2022/09/27 08:23:31;;;;;;;14.23;4.97;;;;;;;25.25;50.10;99530.44;4914836;29;20051;-84
2022/09/27 08:25:58;;;;;;;14.40;4.90;;;;;;;25.17;49.79;99484.88;4917621;29;20040;-88
2022/09/27 08:28:26;;;;;;;13.85;5.40;;;;;;;25.44;49.62;99501.63;4918746;29;20051;-89
2022/09/27 08:30:52;;;;;;;8.07;4.60;;;;;;;25.55;49.49;99516.41;4912124;29;20113;-90
2022/09/27 08:33:18;;;;;;;15.85;5.05;;;;;;;25.56;49.39;99488.66;4910232;29;20032;-88
2022/09/27 08:35:44;;;;;;;8.63;4.38;;;;;;;25.55;49.14;99481.47;4909212;29;20077;-86
2022/09/27 08:38:10;;;;;;;13.85;4.50;;;;;;;25.58;49.04;99500.25;4900001;29;20456;-89
2022/09/27 08:40:57;;;;;;;15.90;4.95;;;;;;;25.64;48.74;99506.66;4898300;29;20081;-87
2022/09/27 08:43:37;;;;;;;14.30;3.85;;;;;;;25.70;48.98;99513.91;4897813;29;20176;-87
2022/09/27 08:46:14;;;;;;;11.95;4.20;;;;;;;25.44;48.49;99479.59;4896503;29;20036;-85
2022/09/27 08:48:41;;;;;;;16.55;4.32;;;;;;;25.54;48.53;99493.56;4899987;29;20036;-88
2022/09/27 08:51:12;;;;;;;16.98;5.47;;;;;;;25.40;48.54;99472.91;4896926;29;20037;-83
2022/09/27 08:53:54;;;;;;;16.17;4.78;;;;;;;25.45;48.33;99486.75;4897336;29;20033;-85
2022/09/27 08:56:20;;;;;;;31.80;5.00;;;;;;;25.57;48.54;99492.22;4925013;29;20099;-85
2022/09/27 08:58:55;;;;;;;9.77;5.05;;;;;;;25.73;48.67;99496.91;4947519;29;20031;-83
2022/09/27 09:01:21;;;;;;;13.07;4.22;;;;;;;25.67;48.42;99479.47;4937692;29;20043;-84
2022/09/27 09:03:56;;;;;;;12.15;4.72;;;;;;;25.51;48.17;99455.50;4957047;29;20104;-84
2022/09/27 09:06:27;;;;;;;8.73;4.22;;;;;;;25.73;48.04;99472.09;4947909;29;20038;-84
2022/09/27 09:09:09;;;;;;;8.27;3.95;;;;;;;25.96;47.99;99494.78;4945319;29;20034;-90
2022/09/27 09:14:55;;;;;;;17.27;4.88;;;;;;;26.12;48.15;99479.31;4953644;29;20060;-85
2022/09/27 09:17:39;;;;;;;10.40;4.32;;;;;;;26.07;48.59;99489.44;4943134;29;20028;-91
2022/09/27 09:20:26;;;;;;;7.57;4.03;;;;;;;25.68;nan;99414.19;4926310;29;20098;-88
2022/09/27 09:22:57;;;;;;;12.20;4.60;;;;;;;26.19;48.96;99490.19;4937898;29;20498;-85
2022/09/27 09:25:44;;;;;;;13.90;4.28;;;;;;;26.20;49.15;99494.63;4937566;29;20163;-84
2022/09/27 09:28:47;;;;;;;14.75;5.22;;;;;;;26.17;49.12;99495.13;4934575;29;20036;-82
2022/09/27 09:31:50;;;;;;;7.93;3.83;;;;;;;26.28;48.98;99499.69;4934106;29;20027;-85
2022/09/27 09:34:18;;;;;;;8.98;4.07;;;;;;;26.26;48.96;99499.13;4935839;29;20039;-83
2022/09/27 09:36:56;;;;;;;21.00;5.00;;;;;;;26.30;48.77;99501.09;4933978;29;20495;-83
2022/09/27 09:39:27;;;;;;;7.68;3.85;;;;;;;26.30;48.91;99512.13;4933552;29;20054;-85
2022/09/27 09:42:12;;;;;;;16.98;7.13;;;;;;;26.27;49.34;99504.38;4915395;29;20064;-82
2022/09/27 09:44:44;;;;;;;7.00;4.20;;;;;;;26.34;49.17;99495.94;4933089;29;20039;-84
2022/09/27 09:47:30;;;;;;;33.92;6.32;;;;;;;26.24;49.75;99490.25;4933933;29;20040;-85
2022/09/27 09:50:03;;;;;;;33.42;6.00;;;;;;;26.22;49.80;99485.03;4932986;29;20118;-84
2022/09/27 09:52:40;;;;;;;13.85;7.35;;;;;;;26.28;49.95;99491.44;4933489;29;20035;-81
2022/09/27 09:55:16;;;;;;;26.20;5.88;;;;;;;26.17;49.67;99468.41;4929614;29;20039;-82
2022/09/27 09:57:52;;;;;;;21.30;6.32;;;;;;;26.10;49.67;99462.22;4916374;29;20421;-85
2022/09/27 10:00:18;;;;;;;15.75;5.07;;;;;;;26.28;49.39;99485.91;4932557;29;20032;-85
2022/09/27 10:02:46;;;;;;;12.85;4.35;;;;;;;26.42;49.51;99487.22;4933185;29;20040;-83
2022/09/27 10:05:15;;;;;;;13.45;5.50;;;;;;;26.26;49.58;99455.03;4934402;29;20035;-84
2022/09/27 10:07:41;;;;;;;15.77;5.15;;;;;;;26.39;49.61;99466.50;4933408;29;20055;-83
2022/09/27 10:10:12;;;;;;;84.03;8.88;;;;;;;26.44;49.36;99446.44;4933109;29;20114;-85
2022/09/27 10:12:37;;;;;;;10.18;4.72;;;;;;;26.49;48.82;99471.31;4935639;29;20420;-80
2022/09/27 10:15:05;;;;;;;23.95;5.25;;;;;;;26.60;48.96;99456.56;4932810;29;20031;-79
2022/09/27 10:17:40;;;;;;;11.90;4.35;;;;;;;26.57;48.82;99451.56;4933091;29;20039;-79
2022/09/27 10:20:21;;;;;;;10.38;4.68;;;;;;;26.54;48.77;99446.56;4933278;29;20090;-78
2022/09/27 10:22:53;;;;;;;10.98;4.35;;;;;;;26.52;49.05;99449.56;4954138;29;20028;-79
2022/09/27 10:25:18;;;;;;;10.05;4.45;;;;;;;26.60;48.92;99445.53;4941640;29;20636;-79
2022/09/27 10:27:50;;;;;;;11.75;4.68;;;;;;;26.60;48.78;99434.50;4945103;29;20047;-79
2022/09/27 10:30:24;;;;;;;19.70;4.70;;;;;;;26.65;48.96;99431.81;4944191;29;20039;-79
2022/09/27 10:32:53;;;;;;;13.23;5.22;;;;;;;26.64;48.95;99441.16;4953326;29;20042;-79
2022/09/27 10:35:28;;;;;;;23.40;4.35;;;;;;;26.73;49.12;99428.56;4877399;29;20711;-80
2022/09/27 10:38:12;;;;;;;15.98;4.68;;;;;;;26.72;49.06;99395.75;4932453;29;20092;-78
2022/09/27 10:40:37;;;;;;;7.28;3.78;;;;;;;27.04;48.82;99414.03;4932385;29;20040;-79
2022/09/27 10:43:21;;;;;;;1999.90;330.13;;;;;;;27.42;48.17;99415.81;4932967;29;20318;-78
2022/09/27 10:45:46;;;;;;;106.32;14.43;;;;;;;27.63;47.84;99411.25;4940571;29;20032;-79
2022/09/27 10:48:21;;;;;;;34.47;8.55;;;;;;;27.75;50.05;99408.31;4933555;29;20035;-80
2022/09/27 10:50:59;;;;;;;25.00;7.18;;;;;;;27.70;51.83;99394.47;4932727;29;20122;-79
2022/09/27 10:53:25;;;;;;;52.75;12.02;;;;;;;27.95;52.13;99397.38;4932583;29;20032;-79
2022/09/27 10:55:51;;;;;;;19.27;5.90;;;;;;;27.95;51.28;99365.03;4932663;29;20032;-79
2022/09/27 10:58:30;;;;;;;18.35;5.03;;;;;;;27.76;50.90;99396.16;4932644;29;20114;-80
2022/09/27 11:01:06;;;;;;;17.23;4.75;;;;;;;27.96;50.97;99393.50;4932781;29;20039;-80
2022/09/27 11:03:36;;;;;;;40.47;5.10;;;;;;;28.09;50.46;99382.00;4933371;29;20028;-79
2022/09/27 11:06:23;;;;;;;57.70;6.95;;;;;;;28.07;47.64;99379.50;4932545;29;20028;-79
2022/09/27 11:08:51;;;;;;;15.07;4.90;;;;;;;28.09;46.99;99382.84;4932829;29;20079;-78
2022/09/27 11:11:34;;;;;;;15.80;4.90;;;;;;;28.17;46.74;99373.19;4932197;29;20034;-77
2022/09/27 11:14:02;;;;;;;14.07;5.22;;;;;;;28.43;46.39;99376.91;4931835;29;20031;-78
2022/09/27 11:16:44;;;;;;;15.73;4.82;;;;;;;28.60;46.02;99383.84;4932270;29;20035;-80
2022/09/27 11:19:31;;;;;;;12.90;4.50;;;;;;;28.53;45.71;99388.81;4933206;29;20102;-80
2022/09/27 11:22:34;;;;;;;23.50;4.95;;;;;;;28.36;46.40;99390.13;4936502;29;20114;-80
2022/09/27 11:25:21;;;;;;;60.22;8.55;;;;;;;28.17;48.19;99351.06;4918150;29;20080;-80
2022/09/27 11:28:16;;;;;;;24.20;7.25;;;;;;;28.29;49.86;99382.09;4935862;29;20024;-79
2022/09/27 11:30:47;;;;;;;12.25;5.18;;;;;;;27.77;51.10;99390.34;4934325;29;20048;-80
2022/09/27 11:33:39;;;;;;;36.57;7.87;;;;;;;27.61;51.98;99383.09;4937323;29;20034;-79
2022/09/27 11:36:25;;;;;;;25.35;7.50;;;;;;;27.37;52.29;99373.44;4895814;29;20041;-81
2022/09/27 11:39:11;;;;;;;68.25;9.57;;;;;;;27.29;52.56;99362.91;4879760;29;20043;-78
2022/09/27 11:41:43;;;;;;;762.08;108.70;;;;;;;27.18;53.19;99358.41;4879730;29;20064;-80
2022/09/27 11:44:14;;;;;;;89.63;22.37;;;;;;;26.92;54.05;99360.94;4906166;29;20040;-78
2022/09/27 11:46:41;;;;;;;54.28;10.07;;;;;;;26.63;54.80;99351.25;4918408;29;20025;-79